HRYR/KGL METAR and TAF weather

Enter ICAO airport designator
Station Type Date Time Source
HRYR METAR 2022/08/12 14:30 UTC NOAA

HRYR 121430Z 14007KT 110V170 9999 SCT025 SCT100 26/11 Q1016 NOSIG


Station Type Date Time Source
HRYR Decoded METAR 2022/08/12 14:30 UTC NOAA

Kigali, Rwanda (HRYR) 01-58S 030-07E 1497M
Aug 12, 2022 - 10:30 AM EDT / 2022.08.12 1430 UTC
Wind: from the SE (140 degrees) at 8 MPH (7 KT) (direction variable):0
Visibility: greater than 7 mile(s):0
Sky conditions: partly cloudy
Temperature: 78 F (26 C)
Dew Point: 51 F (11 C)
Relative Humidity: 39%
Pressure (altimeter): 30.00 in. Hg (1016 hPa)
ob: HRYR 121430Z 14007KT 110V170 9999 SCT025 SCT100 26/11 Q1016 NOSIG
cycle: 14

Station Type Date Time Source
HRYR TAF 2022/08/12 12:58 UTC NOAA

TAF HRYR 121100Z 1212/1318 18010KT 9999 SCT025
BECMG 1218/1222 08005KT
BECMG 1301/1304 32004KT
BECMG 1306/1310 17010KT
TEMPO 1312/1316 BKN025

Example: see airport list